Terminal Aerodrome Forecast
Issued by NWS

Home | Current Version | Previous Version | Text Only | Print | Product List | Glossary On
Versions: 1 2 3 4 5 6 7 8 9 10 11 12 13
000
FTUS45 KABQ 291156 AAA
TAFLVS
TAF AMD
KLVS 291156Z 2912/3012 VRB05KT P6SM VCSH BKN100
      TEMPO 2912/2914 VRB10G20KT -SHRA BKN090
     FM291400 VRB05KT P6SM SCT120
     FM291930 16014KT P6SM VCTS SCT080CB BKN140
      TEMPO 2920/2923 VRB20G30KT -SHRA BKN080
     FM292300 22014KT P6SM VCSH BKN090
     FM300300 06009KT P6SM BKN120
     FM300600 12006KT P6SM SCT150=

USA.gov is the U.S. government's official web portal to all federal, state and local government web resources and services.